sensor_id;sensor_type;location;lat;lon;timestamp;P1;durP1;ratioP1;P2;durP2;ratioP2
21894;SDS011;11112;51.270;7.224;2023-04-24T00:00:02;1.30;;;0.60;;
21894;SDS011;11112;51.270;7.224;2023-04-24T00:02:34;2.38;;;0.60;;
21894;SDS011;11112;51.270;7.224;2023-04-24T00:05:05;1.73;;;0.50;;
21894;SDS011;11112;51.270;7.224;2023-04-24T00:07:34;0.90;;;0.40;;
21894;SDS011;11112;51.270;7.224;2023-04-24T00:10:01;0.88;;;0.50;;
21894;SDS011;11112;51.270;7.224;2023-04-24T00:12:30;1.30;;;0.60;;
21894;SDS011;11112;51.270;7.224;2023-04-24T00:14:57;1.00;;;0.60;;
21894;SDS011;11112;51.270;7.224;2023-04-24T00:17:25;1.30;;;0.57;;
21894;SDS011;11112;51.270;7.224;2023-04-24T00:19:53;3.42;;;0.60;;
21894;SDS011;11112;51.270;7.224;2023-04-24T00:22:25;1.48;;;0.63;;
21894;SDS011;11112;51.270;7.224;2023-04-24T00:24:53;1.00;;;0.63;;
21894;SDS011;11112;51.270;7.224;2023-04-24T00:27:23;1.13;;;0.50;;
21894;SDS011;11112;51.270;7.224;2023-04-24T00:29:51;2.08;;;0.70;;
21894;SDS011;11112;51.270;7.224;2023-04-24T00:32:20;1.48;;;0.70;;
21894;SDS011;11112;51.270;7.224;2023-04-24T00:34:59;2.17;;;0.85;;
21894;SDS011;11112;51.270;7.224;2023-04-24T00:37:32;2.85;;;0.80;;
21894;SDS011;11112;51.270;7.224;2023-04-24T00:40:01;1.48;;;0.60;;
21894;SDS011;11112;51.270;7.224;2023-04-24T00:42:29;1.95;;;0.73;;
21894;SDS011;11112;51.270;7.224;2023-04-24T00:44:59;2.85;;;0.80;;
21894;SDS011;11112;51.270;7.224;2023-04-24T00:47:29;1.77;;;0.80;;
21894;SDS011;11112;51.270;7.224;2023-04-24T00:49:57;3.15;;;0.80;;
21894;SDS011;11112;51.270;7.224;2023-04-24T00:52:28;1.88;;;0.70;;
21894;SDS011;11112;51.270;7.224;2023-04-24T00:54:58;2.03;;;0.70;;
21894;SDS011;11112;51.270;7.224;2023-04-24T00:57:27;2.17;;;0.70;;
21894;SDS011;11112;51.270;7.224;2023-04-24T00:59:57;2.08;;;0.70;;
21894;SDS011;11112;51.270;7.224;2023-04-24T01:02:25;2.47;;;0.93;;
21894;SDS011;11112;51.270;7.224;2023-04-24T01:04:57;2.25;;;0.80;;
21894;SDS011;11112;51.270;7.224;2023-04-24T01:07:28;1.92;;;0.88;;
21894;SDS011;11112;51.270;7.224;2023-04-24T01:09:59;1.45;;;0.80;;
21894;SDS011;11112;51.270;7.224;2023-04-24T01:12:27;2.00;;;0.80;;
21894;SDS011;11112;51.270;7.224;2023-04-24T01:14:56;2.17;;;1.08;;
21894;SDS011;11112;51.270;7.224;2023-04-24T01:17:24;3.63;;;1.10;;
21894;SDS011;11112;51.270;7.224;2023-04-24T01:19:51;1.88;;;0.88;;
21894;SDS011;11112;51.270;7.224;2023-04-24T01:22:26;3.00;;;0.90;;
21894;SDS011;11112;51.270;7.224;2023-04-24T01:24:53;2.33;;;1.00;;
21894;SDS011;11112;51.270;7.224;2023-04-24T01:27:21;2.20;;;1.00;;
21894;SDS011;11112;51.270;7.224;2023-04-24T01:29:48;1.65;;;0.93;;
21894;SDS011;11112;51.270;7.224;2023-04-24T01:32:17;2.22;;;0.90;;
21894;SDS011;11112;51.270;7.224;2023-04-24T01:34:45;2.58;;;0.98;;
21894;SDS011;11112;51.270;7.224;2023-04-24T01:37:14;3.70;;;1.00;;
21894;SDS011;11112;51.270;7.224;2023-04-24T01:39:44;2.85;;;1.00;;
21894;SDS011;11112;51.270;7.224;2023-04-24T01:42:12;2.50;;;0.90;;
21894;SDS011;11112;51.270;7.224;2023-04-24T01:44:41;2.72;;;1.10;;
21894;SDS011;11112;51.270;7.224;2023-04-24T01:47:09;2.55;;;0.98;;
21894;SDS011;11112;51.270;7.224;2023-04-24T01:49:37;3.40;;;1.45;;
21894;SDS011;11112;51.270;7.224;2023-04-24T01:52:05;3.92;;;1.50;;
21894;SDS011;11112;51.270;7.224;2023-04-24T01:54:33;2.70;;;1.50;;
21894;SDS011;11112;51.270;7.224;2023-04-24T01:57:02;3.97;;;1.70;;
21894;SDS011;11112;51.270;7.224;2023-04-24T01:59:29;4.40;;;1.70;;
21894;SDS011;11112;51.270;7.224;2023-04-24T02:01:59;3.33;;;2.00;;
21894;SDS011;11112;51.270;7.224;2023-04-24T02:04:27;4.25;;;1.70;;
21894;SDS011;11112;51.270;7.224;2023-04-24T02:06:55;3.78;;;1.73;;
21894;SDS011;11112;51.270;7.224;2023-04-24T02:09:23;3.50;;;1.80;;
21894;SDS011;11112;51.270;7.224;2023-04-24T02:11:51;3.50;;;1.90;;
21894;SDS011;11112;51.270;7.224;2023-04-24T02:14:20;5.13;;;2.20;;
21894;SDS011;11112;51.270;7.224;2023-04-24T02:16:47;5.65;;;2.00;;
21894;SDS011;11112;51.270;7.224;2023-04-24T02:19:15;4.70;;;1.90;;
21894;SDS011;11112;51.270;7.224;2023-04-24T02:21:42;2.95;;;2.20;;
21894;SDS011;11112;51.270;7.224;2023-04-24T02:24:10;3.95;;;2.30;;
21894;SDS011;11112;51.270;7.224;2023-04-24T02:26:37;3.78;;;2.30;;
21894;SDS011;11112;51.270;7.224;2023-04-24T02:29:05;6.15;;;3.53;;
21894;SDS011;11112;51.270;7.224;2023-04-24T02:31:33;6.25;;;4.03;;
21894;SDS011;11112;51.270;7.224;2023-04-24T02:34:01;6.80;;;4.07;;
21894;SDS011;11112;51.270;7.224;2023-04-24T02:36:28;7.20;;;4.20;;
21894;SDS011;11112;51.270;7.224;2023-04-24T02:38:56;6.45;;;4.68;;
21894;SDS011;11112;51.270;7.224;2023-04-24T02:41:24;7.78;;;5.05;;
21894;SDS011;11112;51.270;7.224;2023-04-24T02:43:56;7.70;;;5.47;;
21894;SDS011;11112;51.270;7.224;2023-04-24T02:46:23;9.68;;;6.30;;
21894;SDS011;11112;51.270;7.224;2023-04-24T02:48:55;10.52;;;6.75;;
21894;SDS011;11112;51.270;7.224;2023-04-24T02:51:23;9.55;;;6.25;;
21894;SDS011;11112;51.270;7.224;2023-04-24T02:53:50;9.20;;;6.03;;
21894;SDS011;11112;51.270;7.224;2023-04-24T02:56:19;11.10;;;6.32;;
21894;SDS011;11112;51.270;7.224;2023-04-24T02:58:49;10.27;;;6.30;;
21894;SDS011;11112;51.270;7.224;2023-04-24T03:01:17;9.10;;;6.07;;
21894;SDS011;11112;51.270;7.224;2023-04-24T03:03:54;10.13;;;6.30;;
21894;SDS011;11112;51.270;7.224;2023-04-24T03:06:24;8.85;;;5.95;;
21894;SDS011;11112;51.270;7.224;2023-04-24T03:08:52;7.82;;;6.20;;
21894;SDS011;11112;51.270;7.224;2023-04-24T03:11:20;9.63;;;6.80;;
21894;SDS011;11112;51.270;7.224;2023-04-24T03:13:50;8.73;;;6.35;;
21894;SDS011;11112;51.270;7.224;2023-04-24T03:16:18;10.20;;;7.18;;
21894;SDS011;11112;51.270;7.224;2023-04-24T03:18:46;9.93;;;6.78;;
21894;SDS011;11112;51.270;7.224;2023-04-24T03:21:15;12.20;;;7.53;;
21894;SDS011;11112;51.270;7.224;2023-04-24T03:23:43;12.32;;;7.40;;
21894;SDS011;11112;51.270;7.224;2023-04-24T03:26:11;11.93;;;7.45;;
21894;SDS011;11112;51.270;7.224;2023-04-24T03:28:40;11.75;;;7.07;;
21894;SDS011;11112;51.270;7.224;2023-04-24T03:31:08;11.48;;;7.22;;
21894;SDS011;11112;51.270;7.224;2023-04-24T03:33:35;10.85;;;6.80;;
21894;SDS011;11112;51.270;7.224;2023-04-24T03:36:03;13.02;;;6.97;;
21894;SDS011;11112;51.270;7.224;2023-04-24T03:38:34;11.20;;;6.78;;
21894;SDS011;11112;51.270;7.224;2023-04-24T03:41:01;10.40;;;6.75;;
21894;SDS011;11112;51.270;7.224;2023-04-24T03:43:29;11.45;;;6.80;;
21894;SDS011;11112;51.270;7.224;2023-04-24T03:45:58;13.68;;;6.38;;
21894;SDS011;11112;51.270;7.224;2023-04-24T03:48:25;9.05;;;6.70;;
21894;SDS011;11112;51.270;7.224;2023-04-24T03:50:54;10.60;;;6.00;;
21894;SDS011;11112;51.270;7.224;2023-04-24T03:53:21;12.20;;;6.03;;
21894;SDS011;11112;51.270;7.224;2023-04-24T03:55:50;9.38;;;6.53;;
21894;SDS011;11112;51.270;7.224;2023-04-24T03:58:23;11.05;;;6.75;;
21894;SDS011;11112;51.270;7.224;2023-04-24T04:00:52;9.23;;;7.38;;
21894;SDS011;11112;51.270;7.224;2023-04-24T04:03:21;10.77;;;6.95;;
21894;SDS011;11112;51.270;7.224;2023-04-24T04:05:50;10.02;;;6.75;;
21894;SDS011;11112;51.270;7.224;2023-04-24T04:08:19;11.73;;;6.80;;
21894;SDS011;11112;51.270;7.224;2023-04-24T04:10:51;11.90;;;7.10;;
21894;SDS011;11112;51.270;7.224;2023-04-24T04:13:19;12.70;;;6.75;;
21894;SDS011;11112;51.270;7.224;2023-04-24T04:15:47;11.65;;;6.63;;
21894;SDS011;11112;51.270;7.224;2023-04-24T04:18:16;12.13;;;6.93;;
21894;SDS011;11112;51.270;7.224;2023-04-24T04:20:43;10.70;;;6.80;;
21894;SDS011;11112;51.270;7.224;2023-04-24T04:23:11;11.60;;;7.13;;
21894;SDS011;11112;51.270;7.224;2023-04-24T04:25:38;11.23;;;7.53;;
21894;SDS011;11112;51.270;7.224;2023-04-24T04:28:08;12.57;;;7.45;;
21894;SDS011;11112;51.270;7.224;2023-04-24T04:30:35;13.23;;;7.15;;
21894;SDS011;11112;51.270;7.224;2023-04-24T04:33:03;12.68;;;7.80;;
21894;SDS011;11112;51.270;7.224;2023-04-24T04:35:31;12.50;;;7.95;;
21894;SDS011;11112;51.270;7.224;2023-04-24T04:37:58;11.70;;;7.50;;
21894;SDS011;11112;51.270;7.224;2023-04-24T04:40:26;10.73;;;7.05;;
21894;SDS011;11112;51.270;7.224;2023-04-24T04:42:55;11.50;;;7.40;;
21894;SDS011;11112;51.270;7.224;2023-04-24T04:45:24;12.25;;;7.43;;
21894;SDS011;11112;51.270;7.224;2023-04-24T04:47:53;11.23;;;7.57;;
21894;SDS011;11112;51.270;7.224;2023-04-24T04:50:21;10.25;;;6.95;;
21894;SDS011;11112;51.270;7.224;2023-04-24T04:52:50;12.25;;;7.68;;
21894;SDS011;11112;51.270;7.224;2023-04-24T04:55:18;11.50;;;7.30;;
21894;SDS011;11112;51.270;7.224;2023-04-24T04:57:46;10.10;;;7.20;;
21894;SDS011;11112;51.270;7.224;2023-04-24T05:00:18;10.77;;;7.80;;
21894;SDS011;11112;51.270;7.224;2023-04-24T05:02:50;12.80;;;7.35;;
21894;SDS011;11112;51.270;7.224;2023-04-24T05:05:18;10.63;;;7.32;;
21894;SDS011;11112;51.270;7.224;2023-04-24T05:07:46;12.65;;;7.55;;
21894;SDS011;11112;51.270;7.224;2023-04-24T05:10:14;13.48;;;7.60;;
21894;SDS011;11112;51.270;7.224;2023-04-24T05:12:41;10.57;;;7.10;;
21894;SDS011;11112;51.270;7.224;2023-04-24T05:15:09;11.70;;;7.18;;
21894;SDS011;11112;51.270;7.224;2023-04-24T05:17:37;11.70;;;6.90;;
21894;SDS011;11112;51.270;7.224;2023-04-24T05:20:07;11.45;;;6.80;;
21894;SDS011;11112;51.270;7.224;2023-04-24T05:22:36;11.60;;;7.20;;
21894;SDS011;11112;51.270;7.224;2023-04-24T05:25:04;10.93;;;6.47;;
21894;SDS011;11112;51.270;7.224;2023-04-24T05:27:34;9.68;;;6.70;;
21894;SDS011;11112;51.270;7.224;2023-04-24T05:30:01;12.00;;;6.50;;
21894;SDS011;11112;51.270;7.224;2023-04-24T05:32:31;11.55;;;6.93;;
21894;SDS011;11112;51.270;7.224;2023-04-24T05:34:59;10.98;;;6.97;;
21894;SDS011;11112;51.270;7.224;2023-04-24T05:37:28;10.70;;;6.93;;
21894;SDS011;11112;51.270;7.224;2023-04-24T05:39:57;8.43;;;6.53;;
21894;SDS011;11112;51.270;7.224;2023-04-24T05:42:27;11.68;;;6.82;;
21894;SDS011;11112;51.270;7.224;2023-04-24T05:44:55;13.70;;;6.90;;
21894;SDS011;11112;51.270;7.224;2023-04-24T05:47:22;10.20;;;7.18;;
21894;SDS011;11112;51.270;7.224;2023-04-24T05:49:51;10.30;;;7.00;;
21894;SDS011;11112;51.270;7.224;2023-04-24T05:52:22;9.40;;;6.00;;
21894;SDS011;11112;51.270;7.224;2023-04-24T05:54:54;9.05;;;5.88;;
21894;SDS011;11112;51.270;7.224;2023-04-24T05:57:22;8.90;;;5.68;;
21894;SDS011;11112;51.270;7.224;2023-04-24T05:59:51;8.85;;;6.10;;
21894;SDS011;11112;51.270;7.224;2023-04-24T06:02:19;10.48;;;6.40;;
21894;SDS011;11112;51.270;7.224;2023-04-24T06:04:47;8.43;;;5.80;;
21894;SDS011;11112;51.270;7.224;2023-04-24T06:07:20;7.40;;;5.63;;
21894;SDS011;11112;51.270;7.224;2023-04-24T06:09:48;8.40;;;5.82;;
21894;SDS011;11112;51.270;7.224;2023-04-24T06:12:17;9.00;;;5.60;;
21894;SDS011;11112;51.270;7.224;2023-04-24T06:14:47;8.25;;;5.35;;
21894;SDS011;11112;51.270;7.224;2023-04-24T06:17:15;8.75;;;5.72;;
21894;SDS011;11112;51.270;7.224;2023-04-24T06:19:42;8.05;;;5.68;;
21894;SDS011;11112;51.270;7.224;2023-04-24T06:22:12;9.18;;;5.40;;
21894;SDS011;11112;51.270;7.224;2023-04-24T06:24:40;8.15;;;5.30;;
21894;SDS011;11112;51.270;7.224;2023-04-24T06:27:07;8.23;;;5.53;;
21894;SDS011;11112;51.270;7.224;2023-04-24T06:29:36;8.55;;;5.05;;
21894;SDS011;11112;51.270;7.224;2023-04-24T06:32:03;7.28;;;5.10;;
21894;SDS011;11112;51.270;7.224;2023-04-24T06:34:31;7.65;;;5.60;;
21894;SDS011;11112;51.270;7.224;2023-04-24T06:36:59;7.47;;;5.57;;
21894;SDS011;11112;51.270;7.224;2023-04-24T06:39:26;9.18;;;5.85;;
21894;SDS011;11112;51.270;7.224;2023-04-24T06:41:56;7.63;;;5.40;;
21894;SDS011;11112;51.270;7.224;2023-04-24T06:44:25;9.35;;;5.95;;
21894;SDS011;11112;51.270;7.224;2023-04-24T06:46:54;6.47;;;5.75;;
21894;SDS011;11112;51.270;7.224;2023-04-24T06:49:21;7.18;;;5.70;;
21894;SDS011;11112;51.270;7.224;2023-04-24T06:51:49;6.50;;;5.15;;
21894;SDS011;11112;51.270;7.224;2023-04-24T06:54:16;7.03;;;5.05;;
21894;SDS011;11112;51.270;7.224;2023-04-24T06:56:43;8.52;;;5.15;;
21894;SDS011;11112;51.270;7.224;2023-04-24T06:59:12;8.80;;;5.10;;
21894;SDS011;11112;51.270;7.224;2023-04-24T07:01:40;8.25;;;4.88;;
21894;SDS011;11112;51.270;7.224;2023-04-24T07:04:08;6.82;;;4.40;;
21894;SDS011;11112;51.270;7.224;2023-04-24T07:06:37;5.28;;;3.67;;
21894;SDS011;11112;51.270;7.224;2023-04-24T07:09:05;5.40;;;3.13;;
21894;SDS011;11112;51.270;7.224;2023-04-24T07:11:34;5.28;;;3.40;;
21894;SDS011;11112;51.270;7.224;2023-04-24T07:14:03;4.95;;;3.25;;
21894;SDS011;11112;51.270;7.224;2023-04-24T07:16:30;4.82;;;3.30;;
21894;SDS011;11112;51.270;7.224;2023-04-24T07:18:58;5.28;;;2.97;;
21894;SDS011;11112;51.270;7.224;2023-04-24T07:21:26;6.38;;;2.90;;
21894;SDS011;11112;51.270;7.224;2023-04-24T07:23:54;5.18;;;3.28;;
21894;SDS011;11112;51.270;7.224;2023-04-24T07:26:25;4.97;;;3.08;;
21894;SDS011;11112;51.270;7.224;2023-04-24T07:28:52;4.60;;;2.88;;
21894;SDS011;11112;51.270;7.224;2023-04-24T07:31:19;3.88;;;2.63;;
21894;SDS011;11112;51.270;7.224;2023-04-24T07:33:47;3.08;;;2.40;;
21894;SDS011;11112;51.270;7.224;2023-04-24T07:36:15;4.10;;;2.22;;
21894;SDS011;11112;51.270;7.224;2023-04-24T07:38:45;3.28;;;2.20;;
21894;SDS011;11112;51.270;7.224;2023-04-24T07:41:13;2.75;;;1.60;;
21894;SDS011;11112;51.270;7.224;2023-04-24T07:43:40;2.13;;;1.50;;
21894;SDS011;11112;51.270;7.224;2023-04-24T07:46:08;2.35;;;1.30;;
21894;SDS011;11112;51.270;7.224;2023-04-24T07:48:35;2.80;;;1.60;;
21894;SDS011;11112;51.270;7.224;2023-04-24T07:51:03;3.17;;;1.30;;
21894;SDS011;11112;51.270;7.224;2023-04-24T07:53:31;3.10;;;1.58;;
21894;SDS011;11112;51.270;7.224;2023-04-24T07:56:00;2.22;;;1.30;;
21894;SDS011;11112;51.270;7.224;2023-04-24T07:58:28;3.33;;;1.20;;
21894;SDS011;11112;51.270;7.224;2023-04-24T08:00:55;2.47;;;1.30;;
21894;SDS011;11112;51.270;7.224;2023-04-24T08:03:23;3.42;;;1.10;;
21894;SDS011;11112;51.270;7.224;2023-04-24T08:05:51;4.15;;;1.13;;
21894;SDS011;11112;51.270;7.224;2023-04-24T08:08:19;1.90;;;0.98;;
21894;SDS011;11112;51.270;7.224;2023-04-24T08:10:57;2.08;;;0.93;;
21894;SDS011;11112;51.270;7.224;2023-04-24T08:13:28;1.20;;;0.50;;
21894;SDS011;11112;51.270;7.224;2023-04-24T08:15:56;0.77;;;0.40;;
21894;SDS011;11112;51.270;7.224;2023-04-24T08:18:23;0.65;;;0.30;;
21894;SDS011;11112;51.270;7.224;2023-04-24T08:20:51;0.60;;;0.40;;
21894;SDS011;11112;51.270;7.224;2023-04-24T08:23:18;1.25;;;0.50;;
21894;SDS011;11112;51.270;7.224;2023-04-24T08:25:47;1.05;;;0.30;;
21894;SDS011;11112;51.270;7.224;2023-04-24T08:28:16;1.17;;;0.68;;
21894;SDS011;11112;51.270;7.224;2023-04-24T08:30:45;0.70;;;0.40;;
21894;SDS011;11112;51.270;7.224;2023-04-24T08:33:13;0.68;;;0.30;;
21894;SDS011;11112;51.270;7.224;2023-04-24T08:35:40;0.80;;;0.40;;
21894;SDS011;11112;51.270;7.224;2023-04-24T08:38:08;1.08;;;0.50;;
21894;SDS011;11112;51.270;7.224;2023-04-24T08:40:36;1.35;;;0.50;;
21894;SDS011;11112;51.270;7.224;2023-04-24T08:43:04;1.10;;;0.60;;
21894;SDS011;11112;51.270;7.224;2023-04-24T08:45:33;0.43;;;0.30;;
21894;SDS011;11112;51.270;7.224;2023-04-24T08:48:01;0.68;;;0.40;;
21894;SDS011;11112;51.270;7.224;2023-04-24T08:50:31;2.63;;;0.40;;
21894;SDS011;11112;51.270;7.224;2023-04-24T08:52:59;1.40;;;0.50;;
21894;SDS011;11112;51.270;7.224;2023-04-24T08:55:27;0.80;;;0.60;;
21894;SDS011;11112;51.270;7.224;2023-04-24T08:57:57;1.23;;;0.50;;
21894;SDS011;11112;51.270;7.224;2023-04-24T09:00:27;1.42;;;0.47;;
21894;SDS011;11112;51.270;7.224;2023-04-24T09:02:56;1.15;;;0.30;;
21894;SDS011;11112;51.270;7.224;2023-04-24T09:05:26;0.90;;;0.30;;
21894;SDS011;11112;51.270;7.224;2023-04-24T09:07:54;1.10;;;0.40;;
21894;SDS011;11112;51.270;7.224;2023-04-24T09:10:23;1.52;;;0.30;;
21894;SDS011;11112;51.270;7.224;2023-04-24T09:12:51;0.40;;;0.20;;
21894;SDS011;11112;51.270;7.224;2023-04-24T09:15:23;1.50;;;0.40;;
21894;SDS011;11112;51.270;7.224;2023-04-24T09:17:51;0.95;;;0.25;;
21894;SDS011;11112;51.270;7.224;2023-04-24T09:20:23;0.90;;;0.30;;
21894;SDS011;11112;51.270;7.224;2023-04-24T09:22:53;0.75;;;0.20;;
21894;SDS011;11112;51.270;7.224;2023-04-24T09:25:21;1.90;;;0.30;;
21894;SDS011;11112;51.270;7.224;2023-04-24T09:27:48;1.40;;;0.40;;
21894;SDS011;11112;51.270;7.224;2023-04-24T09:30:21;1.60;;;0.70;;
21894;SDS011;11112;51.270;7.224;2023-04-24T09:32:48;1.88;;;0.70;;
21894;SDS011;11112;51.270;7.224;2023-04-24T09:35:16;2.08;;;0.80;;
21894;SDS011;11112;51.270;7.224;2023-04-24T09:37:45;4.60;;;2.38;;
21894;SDS011;11112;51.270;7.224;2023-04-24T09:40:15;1.85;;;1.50;;
21894;SDS011;11112;51.270;7.224;2023-04-24T09:42:44;3.63;;;1.85;;
21894;SDS011;11112;51.270;7.224;2023-04-24T09:45:13;3.65;;;1.80;;
21894;SDS011;11112;51.270;7.224;2023-04-24T09:47:40;2.95;;;1.65;;
21894;SDS011;11112;51.270;7.224;2023-04-24T09:50:12;3.15;;;1.70;;
21894;SDS011;11112;51.270;7.224;2023-04-24T09:52:41;3.33;;;1.73;;
21894;SDS011;11112;51.270;7.224;2023-04-24T09:55:23;5.22;;;2.22;;
21894;SDS011;11112;51.270;7.224;2023-04-24T09:57:52;3.80;;;2.30;;
21894;SDS011;11112;51.270;7.224;2023-04-24T10:00:24;4.88;;;2.63;;
21894;SDS011;11112;51.270;7.224;2023-04-24T10:02:57;6.10;;;2.57;;
21894;SDS011;11112;51.270;7.224;2023-04-24T10:05:29;4.28;;;2.88;;
21894;SDS011;11112;51.270;7.224;2023-04-24T10:08:02;4.80;;;2.67;;
21894;SDS011;11112;51.270;7.224;2023-04-24T10:10:33;5.70;;;3.40;;
21894;SDS011;11112;51.270;7.224;2023-04-24T10:13:04;4.72;;;2.50;;
21894;SDS011;11112;51.270;7.224;2023-04-24T10:15:34;4.45;;;2.40;;
21894;SDS011;11112;51.270;7.224;2023-04-24T10:18:02;4.70;;;2.80;;
21894;SDS011;11112;51.270;7.224;2023-04-24T10:20:31;5.47;;;2.78;;
21894;SDS011;11112;51.270;7.224;2023-04-24T10:23:03;5.50;;;2.80;;
21894;SDS011;11112;51.270;7.224;2023-04-24T10:25:31;4.88;;;2.83;;
21894;SDS011;11112;51.270;7.224;2023-04-24T10:28:00;6.97;;;3.20;;
21894;SDS011;11112;51.270;7.224;2023-04-24T10:30:29;4.75;;;2.92;;
21894;SDS011;11112;51.270;7.224;2023-04-24T10:33:01;5.70;;;2.80;;
21894;SDS011;11112;51.270;7.224;2023-04-24T10:35:30;7.70;;;2.90;;
21894;SDS011;11112;51.270;7.224;2023-04-24T10:38:00;6.45;;;2.90;;
21894;SDS011;11112;51.270;7.224;2023-04-24T10:40:34;7.05;;;2.67;;
21894;SDS011;11112;51.270;7.224;2023-04-24T10:43:02;7.28;;;3.10;;
21894;SDS011;11112;51.270;7.224;2023-04-24T10:45:31;8.07;;;3.13;;
21894;SDS011;11112;51.270;7.224;2023-04-24T10:47:59;6.90;;;3.00;;
21894;SDS011;11112;51.270;7.224;2023-04-24T10:50:41;9.63;;;3.10;;
21894;SDS011;11112;51.270;7.224;2023-04-24T10:53:17;8.07;;;3.17;;
21894;SDS011;11112;51.270;7.224;2023-04-24T10:55:50;10.43;;;3.35;;
21894;SDS011;11112;51.270;7.224;2023-04-24T10:58:21;8.35;;;3.30;;
21894;SDS011;11112;51.270;7.224;2023-04-24T11:00:55;7.07;;;3.17;;
21894;SDS011;11112;51.270;7.224;2023-04-24T11:03:25;12.20;;;3.70;;
21894;SDS011;11112;51.270;7.224;2023-04-24T11:05:57;9.30;;;3.60;;
21894;SDS011;11112;51.270;7.224;2023-04-24T11:08:32;8.88;;;2.92;;
21894;SDS011;11112;51.270;7.224;2023-04-24T11:11:08;7.65;;;3.00;;
21894;SDS011;11112;51.270;7.224;2023-04-24T11:16:32;11.00;;;3.42;;
21894;SDS011;11112;51.270;7.224;2023-04-24T11:19:20;8.13;;;3.50;;
21894;SDS011;11112;51.270;7.224;2023-04-24T11:21:54;10.43;;;3.53;;
21894;SDS011;11112;51.270;7.224;2023-04-24T11:24:28;9.70;;;3.28;;
21894;SDS011;11112;51.270;7.224;2023-04-24T11:26:58;10.80;;;3.40;;
21894;SDS011;11112;51.270;7.224;2023-04-24T11:29:43;11.10;;;3.53;;
21894;SDS011;11112;51.270;7.224;2023-04-24T11:32:19;9.48;;;3.72;;
21894;SDS011;11112;51.270;7.224;2023-04-24T11:34:52;12.52;;;3.97;;
21894;SDS011;11112;51.270;7.224;2023-04-24T11:37:21;9.35;;;3.33;;
21894;SDS011;11112;51.270;7.224;2023-04-24T11:39:54;12.55;;;4.18;;
21894;SDS011;11112;51.270;7.224;2023-04-24T11:42:24;14.80;;;3.80;;
21894;SDS011;11112;51.270;7.224;2023-04-24T11:44:52;12.93;;;4.30;;
21894;SDS011;11112;51.270;7.224;2023-04-24T11:47:27;15.45;;;4.47;;
21894;SDS011;11112;51.270;7.224;2023-04-24T11:49:55;14.48;;;5.20;;
21894;SDS011;11112;51.270;7.224;2023-04-24T11:52:25;12.15;;;4.90;;
21894;SDS011;11112;51.270;7.224;2023-04-24T11:54:52;16.42;;;4.43;;
21894;SDS011;11112;51.270;7.224;2023-04-24T11:57:21;13.73;;;4.35;;
21894;SDS011;11112;51.270;7.224;2023-04-24T11:59:54;11.00;;;3.95;;
21894;SDS011;11112;51.270;7.224;2023-04-24T12:02:22;14.57;;;4.30;;
21894;SDS011;11112;51.270;7.224;2023-04-24T12:04:50;11.77;;;3.80;;
21894;SDS011;11112;51.270;7.224;2023-04-24T12:07:22;13.85;;;3.95;;
21894;SDS011;11112;51.270;7.224;2023-04-24T12:09:56;9.40;;;3.63;;
21894;SDS011;11112;51.270;7.224;2023-04-24T12:12:26;11.63;;;3.92;;
21894;SDS011;11112;51.270;7.224;2023-04-24T12:14:54;11.55;;;4.18;;
21894;SDS011;11112;51.270;7.224;2023-04-24T12:17:26;13.70;;;4.30;;
21894;SDS011;11112;51.270;7.224;2023-04-24T12:19:58;14.17;;;4.23;;
21894;SDS011;11112;51.270;7.224;2023-04-24T12:22:27;11.52;;;3.60;;
21894;SDS011;11112;51.270;7.224;2023-04-24T12:24:57;10.45;;;3.50;;
21894;SDS011;11112;51.270;7.224;2023-04-24T12:27:26;13.20;;;4.15;;
21894;SDS011;11112;51.270;7.224;2023-04-24T12:29:57;12.30;;;3.10;;
21894;SDS011;11112;51.270;7.224;2023-04-24T12:32:26;10.63;;;3.50;;
21894;SDS011;11112;51.270;7.224;2023-04-24T12:34:53;12.00;;;3.47;;
21894;SDS011;11112;51.270;7.224;2023-04-24T12:37:22;13.77;;;3.60;;
21894;SDS011;11112;51.270;7.224;2023-04-24T12:40:05;8.77;;;3.00;;
21894;SDS011;11112;51.270;7.224;2023-04-24T12:45:08;13.57;;;3.80;;
21894;SDS011;11112;51.270;7.224;2023-04-24T12:47:37;10.55;;;3.33;;
21894;SDS011;11112;51.270;7.224;2023-04-24T12:50:06;10.80;;;3.17;;
21894;SDS011;11112;51.270;7.224;2023-04-24T12:52:36;12.15;;;3.35;;
21894;SDS011;11112;51.270;7.224;2023-04-24T12:55:06;11.73;;;3.17;;
21894;SDS011;11112;51.270;7.224;2023-04-24T12:57:35;8.52;;;3.20;;
21894;SDS011;11112;51.270;7.224;2023-04-24T13:00:04;9.02;;;2.83;;
21894;SDS011;11112;51.270;7.224;2023-04-24T13:02:36;11.13;;;2.97;;
21894;SDS011;11112;51.270;7.224;2023-04-24T13:05:03;10.43;;;2.80;;
21894;SDS011;11112;51.270;7.224;2023-04-24T13:07:31;12.57;;;2.58;;
21894;SDS011;11112;51.270;7.224;2023-04-24T13:09:59;9.80;;;2.70;;
21894;SDS011;11112;51.270;7.224;2023-04-24T13:12:29;9.85;;;2.75;;
21894;SDS011;11112;51.270;7.224;2023-04-24T13:14:57;9.45;;;2.40;;
21894;SDS011;11112;51.270;7.224;2023-04-24T13:17:25;10.40;;;2.80;;
21894;SDS011;11112;51.270;7.224;2023-04-24T13:19:53;7.72;;;2.70;;
21894;SDS011;11112;51.270;7.224;2023-04-24T13:22:21;7.45;;;2.30;;
21894;SDS011;11112;51.270;7.224;2023-04-24T13:24:48;6.10;;;2.08;;
21894;SDS011;11112;51.270;7.224;2023-04-24T13:27:15;6.47;;;1.90;;
21894;SDS011;11112;51.270;7.224;2023-04-24T13:29:45;5.65;;;1.88;;
21894;SDS011;11112;51.270;7.224;2023-04-24T13:32:13;6.60;;;1.60;;
21894;SDS011;11112;51.270;7.224;2023-04-24T13:34:40;5.50;;;1.65;;
21894;SDS011;11112;51.270;7.224;2023-04-24T13:37:08;6.35;;;2.05;;
21894;SDS011;11112;51.270;7.224;2023-04-24T13:39:36;5.70;;;1.80;;
21894;SDS011;11112;51.270;7.224;2023-04-24T13:42:06;6.60;;;1.70;;
21894;SDS011;11112;51.270;7.224;2023-04-24T13:44:33;5.43;;;1.90;;
21894;SDS011;11112;51.270;7.224;2023-04-24T13:47:02;7.30;;;2.38;;
21894;SDS011;11112;51.270;7.224;2023-04-24T13:49:29;4.47;;;1.70;;
21894;SDS011;11112;51.270;7.224;2023-04-24T13:51:56;7.18;;;1.60;;
21894;SDS011;11112;51.270;7.224;2023-04-24T13:54:24;5.45;;;1.48;;
21894;SDS011;11112;51.270;7.224;2023-04-24T13:56:51;6.47;;;1.60;;
21894;SDS011;11112;51.270;7.224;2023-04-24T13:59:19;3.75;;;1.20;;
21894;SDS011;11112;51.270;7.224;2023-04-24T14:01:47;5.88;;;1.40;;
21894;SDS011;11112;51.270;7.224;2023-04-24T14:04:15;4.88;;;1.67;;
21894;SDS011;11112;51.270;7.224;2023-04-24T14:06:44;5.35;;;3.05;;
21894;SDS011;11112;51.270;7.224;2023-04-24T14:09:13;6.05;;;1.60;;
21894;SDS011;11112;51.270;7.224;2023-04-24T14:11:41;3.72;;;1.33;;
21894;SDS011;11112;51.270;7.224;2023-04-24T14:14:08;6.00;;;1.33;;
21894;SDS011;11112;51.270;7.224;2023-04-24T14:16:36;3.72;;;1.30;;
21894;SDS011;11112;51.270;7.224;2023-04-24T14:19:03;4.82;;;1.20;;
21894;SDS011;11112;51.270;7.224;2023-04-24T14:21:33;4.07;;;1.00;;
21894;SDS011;11112;51.270;7.224;2023-04-24T14:24:00;4.40;;;1.20;;
21894;SDS011;11112;51.270;7.224;2023-04-24T14:26:27;5.22;;;1.50;;
21894;SDS011;11112;51.270;7.224;2023-04-24T14:28:54;5.03;;;1.30;;
21894;SDS011;11112;51.270;7.224;2023-04-24T14:31:23;5.00;;;1.40;;
21894;SDS011;11112;51.270;7.224;2023-04-24T14:33:51;5.05;;;1.52;;
21894;SDS011;11112;51.270;7.224;2023-04-24T14:36:20;4.45;;;1.50;;
21894;SDS011;11112;51.270;7.224;2023-04-24T14:38:49;5.60;;;1.40;;
21894;SDS011;11112;51.270;7.224;2023-04-24T14:41:16;6.38;;;1.80;;
21894;SDS011;11112;51.270;7.224;2023-04-24T14:43:43;4.97;;;1.40;;
21894;SDS011;11112;51.270;7.224;2023-04-24T14:46:10;4.85;;;1.55;;
21894;SDS011;11112;51.270;7.224;2023-04-24T14:48:38;5.18;;;1.40;;
21894;SDS011;11112;51.270;7.224;2023-04-24T14:51:07;6.75;;;1.48;;
21894;SDS011;11112;51.270;7.224;2023-04-24T14:53:35;5.32;;;1.27;;
21894;SDS011;11112;51.270;7.224;2023-04-24T14:56:04;5.20;;;1.40;;
21894;SDS011;11112;51.270;7.224;2023-04-24T14:58:34;5.38;;;1.40;;